createdAt,value
2023-03-02T00:00:10.708Z,-0.70
2023-03-02T00:02:59.020Z,-0.70
2023-03-02T00:05:48.071Z,-0.70
2023-03-02T00:08:39.109Z,-0.80
2023-03-02T00:11:27.710Z,-0.80
2023-03-02T00:14:16.227Z,-0.80
2023-03-02T00:17:04.948Z,-0.80
2023-03-02T00:19:53.142Z,-0.90
2023-03-02T00:22:43.805Z,-0.90
2023-03-02T00:25:34.346Z,-0.90
2023-03-02T00:28:22.563Z,-0.90
2023-03-02T00:31:11.833Z,-0.90
2023-03-02T00:34:00.155Z,-0.90
2023-03-02T00:36:49.461Z,-0.90
2023-03-02T00:39:38.001Z,-0.90
2023-03-02T00:42:27.594Z,-0.90
2023-03-02T00:45:15.763Z,-0.90
2023-03-02T00:48:03.962Z,-0.90
2023-03-02T00:50:52.806Z,-1.00
2023-03-02T00:53:42.478Z,-0.90
2023-03-02T00:56:31.393Z,-1.00
2023-03-02T00:59:27.230Z,-1.00
2023-03-02T01:02:34.657Z,-1.10
2023-03-02T01:05:23.626Z,-1.10
2023-03-02T01:08:12.937Z,-1.10
2023-03-02T01:11:01.370Z,-1.20
2023-03-02T01:13:51.128Z,-1.20
2023-03-02T01:16:40.729Z,-1.20
2023-03-02T01:19:28.948Z,-1.20
2023-03-02T01:22:17.536Z,-1.20
2023-03-02T01:25:06.591Z,-1.30
2023-03-02T01:27:55.275Z,-1.30
2023-03-02T01:30:43.451Z,-1.30
2023-03-02T01:33:33.793Z,-1.30
2023-03-02T01:36:22.787Z,-1.30
2023-03-02T01:39:11.111Z,-1.30
2023-03-02T01:41:59.522Z,-1.30
2023-03-02T01:44:50.736Z,-1.20
2023-03-02T01:47:40.961Z,-1.20
2023-03-02T01:50:36.559Z,-1.30
2023-03-02T01:53:30.314Z,-1.30
2023-03-02T01:56:26.966Z,-1.40
2023-03-02T01:59:21.989Z,-1.40
2023-03-02T02:02:12.997Z,-1.40
2023-03-02T02:05:01.557Z,-1.50
2023-03-02T02:07:51.486Z,-1.50
2023-03-02T02:10:41.296Z,-1.50
2023-03-02T02:13:29.565Z,-2.00
2023-03-02T02:16:18.228Z,-1.50
2023-03-02T02:19:18.538Z,-1.50
2023-03-02T02:22:07.051Z,-1.50
2023-03-02T02:25:04.444Z,-1.50
2023-03-02T02:27:55.164Z,-1.50
2023-03-02T02:30:44.860Z,-1.60
2023-03-02T02:33:35.284Z,-1.50
2023-03-02T02:36:33.144Z,-1.50
2023-03-02T02:39:29.882Z,-0.40
2023-03-02T02:42:31.568Z,-1.60
2023-03-02T02:45:26.390Z,-1.50
2023-03-02T02:48:20.482Z,-1.60
2023-03-02T02:51:14.377Z,-1.50
2023-03-02T02:54:04.669Z,-1.60
2023-03-02T02:57:00.657Z,-1.60
2023-03-02T02:59:53.717Z,-1.60
2023-03-02T03:02:50.645Z,-1.60
2023-03-02T03:05:38.937Z,-1.60
2023-03-02T03:09:00.419Z,-1.60
2023-03-02T03:12:02.510Z,-1.60
2023-03-02T03:14:52.283Z,-1.50
2023-03-02T03:17:40.869Z,-1.50
2023-03-02T03:20:30.984Z,-1.60
2023-03-02T03:23:19.609Z,-1.60
2023-03-02T03:26:08.768Z,-1.60
2023-03-02T03:28:58.180Z,-1.60
2023-03-02T03:31:46.814Z,-1.60
2023-03-02T03:34:40.526Z,-1.60
2023-03-02T03:37:36.578Z,-1.60
2023-03-02T03:40:25.080Z,-1.50
2023-03-02T03:43:15.155Z,-1.50
2023-03-02T03:46:11.475Z,-1.50
2023-03-02T03:49:00.112Z,-1.50
2023-03-02T03:51:49.058Z,-1.60
2023-03-02T03:54:38.923Z,-1.60
2023-03-02T03:57:29.524Z,-1.60
2023-03-02T04:00:19.369Z,-1.60
2023-03-02T04:03:13.147Z,-1.70
2023-03-02T04:06:01.483Z,-1.70
2023-03-02T04:08:49.810Z,-1.70
2023-03-02T04:11:41.890Z,-1.70
2023-03-02T04:14:30.422Z,-1.70
2023-03-02T04:17:18.729Z,-1.60
2023-03-02T04:20:23.228Z,-1.60
2023-03-02T04:23:14.176Z,-1.60
2023-03-02T04:26:05.080Z,-1.70
2023-03-02T04:28:54.744Z,-1.70
2023-03-02T04:31:43.374Z,-1.70
2023-03-02T04:34:33.287Z,-1.80
2023-03-02T04:37:21.576Z,-1.80
2023-03-02T04:40:13.500Z,-1.80
2023-03-02T04:43:01.821Z,-1.80
2023-03-02T04:45:51.489Z,-1.90
2023-03-02T04:48:39.731Z,-1.90
2023-03-02T04:51:32.187Z,-1.90
2023-03-02T04:54:24.040Z,-1.90
2023-03-02T04:57:12.271Z,-1.90
2023-03-02T05:00:00.890Z,-1.90
2023-03-02T05:02:51.026Z,-1.80
2023-03-02T05:05:39.534Z,-1.90
2023-03-02T05:08:27.736Z,-1.90
2023-03-02T05:11:22.122Z,-1.90
2023-03-02T05:14:13.355Z,-1.90
2023-03-02T05:17:01.670Z,-1.90
2023-03-02T05:19:51.417Z,-1.90
2023-03-02T05:22:39.703Z,-2.00
2023-03-02T05:25:31.038Z,-2.00
2023-03-02T05:28:20.468Z,-2.00
2023-03-02T05:31:09.432Z,-2.00
2023-03-02T05:33:58.087Z,-2.00
2023-03-02T05:36:47.803Z,-2.00
2023-03-02T05:39:36.003Z,-2.00
2023-03-02T05:42:24.444Z,-2.10
2023-03-02T05:45:20.309Z,-2.10
2023-03-02T05:48:09.576Z,-2.10
2023-03-02T05:50:59.331Z,-2.10
2023-03-02T05:53:48.909Z,-2.20
2023-03-02T05:56:37.153Z,-2.20
2023-03-02T05:59:25.437Z,-2.20
2023-03-02T06:02:13.785Z,-2.00
2023-03-02T06:05:02.244Z,-2.10
2023-03-02T06:07:50.467Z,-2.10
2023-03-02T06:10:40.004Z,-2.00
2023-03-02T06:13:28.384Z,-2.00
2023-03-02T06:16:16.816Z,-2.00
2023-03-02T06:19:05.080Z,-1.90
2023-03-02T06:21:53.605Z,-1.70
2023-03-02T06:24:41.825Z,-1.50
2023-03-02T06:27:31.538Z,-1.20
2023-03-02T06:30:24.240Z,-1.00
2023-03-02T06:33:12.805Z,-0.80
2023-03-02T06:36:01.150Z,-0.60
2023-03-02T06:38:49.770Z,-0.30
2023-03-02T06:41:38.008Z,-0.10
2023-03-02T06:44:27.676Z,0.20
2023-03-02T06:47:15.916Z,0.50
2023-03-02T06:50:04.289Z,0.90
2023-03-02T06:52:52.530Z,1.40
2023-03-02T06:55:41.041Z,1.90
2023-03-02T06:58:29.267Z,2.30
2023-03-02T07:01:18.970Z,2.70
2023-03-02T07:04:07.417Z,3.00
2023-03-02T07:06:56.054Z,3.30
2023-03-02T07:09:44.266Z,3.70
2023-03-02T07:12:32.851Z,3.90
2023-03-02T07:15:00.830Z,4.10
2023-03-02T07:17:31.203Z,4.30
2023-03-02T07:19:59.097Z,4.80
2023-03-02T07:22:26.995Z,5.00
2023-03-02T07:24:54.891Z,5.40
2023-03-02T07:27:23.110Z,5.60
2023-03-02T07:29:51.420Z,5.40
2023-03-02T07:32:19.478Z,5.50
2023-03-02T07:34:48.745Z,6.00
2023-03-02T07:37:17.012Z,6.40
2023-03-02T07:39:45.117Z,6.70
2023-03-02T07:42:13.834Z,7.10
2023-03-02T07:44:43.952Z,7.50
2023-03-02T07:47:11.900Z,7.90
2023-03-02T07:49:40.456Z,8.20
2023-03-02T07:52:09.986Z,8.50
2023-03-02T07:54:38.320Z,8.70
2023-03-02T07:57:06.324Z,8.90
2023-03-02T07:59:37.098Z,9.00
2023-03-02T08:02:05.084Z,9.20
2023-03-02T08:04:35.693Z,9.20
2023-03-02T08:07:03.942Z,9.20
2023-03-02T08:09:33.240Z,9.30
2023-03-02T08:12:01.195Z,9.40
2023-03-02T08:14:29.107Z,9.50
2023-03-02T08:16:57.049Z,9.60
2023-03-02T08:19:26.399Z,9.70
2023-03-02T08:21:54.333Z,9.90
2023-03-02T08:24:22.224Z,10.00
2023-03-02T08:26:51.536Z,10.10
2023-03-02T08:29:19.990Z,10.20
2023-03-02T08:31:47.914Z,10.30
2023-03-02T08:34:15.863Z,10.40
2023-03-02T08:36:44.543Z,11.40
2023-03-02T08:39:13.103Z,10.70
2023-03-02T08:41:40.989Z,10.90
2023-03-02T08:44:10.373Z,10.90
2023-03-02T08:46:38.266Z,10.90
2023-03-02T08:49:06.140Z,11.00
2023-03-02T08:51:34.284Z,10.90
2023-03-02T08:54:03.009Z,11.00
2023-03-02T08:56:33.668Z,11.20
2023-03-02T08:59:05.994Z,11.20
2023-03-02T09:01:38.067Z,11.10
2023-03-02T09:04:09.513Z,10.70
2023-03-02T09:06:41.345Z,10.80
2023-03-02T09:09:11.158Z,10.80
2023-03-02T09:11:39.892Z,10.90
2023-03-02T09:14:10.727Z,11.10
2023-03-02T09:16:40.202Z,11.30
2023-03-02T09:19:08.558Z,10.90
2023-03-02T09:21:36.450Z,10.40
2023-03-02T09:24:04.763Z,10.10
2023-03-02T09:26:32.642Z,9.60
2023-03-02T09:29:00.725Z,9.90
2023-03-02T09:31:30.368Z,9.80
2023-03-02T09:33:59.878Z,9.60
2023-03-02T09:36:28.340Z,9.30
2023-03-02T09:38:56.272Z,8.60
2023-03-02T09:42:00.294Z,8.80
2023-03-02T09:45:19.827Z,10.40
2023-03-02T09:47:59.545Z,9.60
2023-03-02T09:50:34.433Z,9.90
2023-03-02T09:53:29.324Z,10.10
2023-03-02T09:56:00.411Z,10.30
2023-03-02T09:58:36.511Z,10.30
2023-03-02T10:01:14.836Z,10.30
2023-03-02T10:03:56.320Z,9.40
2023-03-02T10:06:26.763Z,9.10
2023-03-02T10:08:56.287Z,9.20
2023-03-02T10:11:40.617Z,9.10
2023-03-02T10:14:17.462Z,9.40
2023-03-02T10:16:50.318Z,9.30
2023-03-02T10:19:26.007Z,9.20
2023-03-02T10:22:08.022Z,9.20
2023-03-02T10:24:44.375Z,9.00
2023-03-02T10:27:20.509Z,8.60
2023-03-02T10:29:59.594Z,8.50
2023-03-02T10:32:33.051Z,8.50
2023-03-02T10:35:14.571Z,8.30
2023-03-02T10:37:43.882Z,8.10
2023-03-02T10:40:34.509Z,7.70
2023-03-02T10:43:04.669Z,7.10
2023-03-02T10:45:34.058Z,6.60
2023-03-02T10:48:04.518Z,6.20
2023-03-02T10:50:33.701Z,6.30
2023-03-02T10:53:06.942Z,6.30
2023-03-02T10:55:36.217Z,6.20
2023-03-02T10:58:22.653Z,6.10
2023-03-02T11:00:59.647Z,5.80
2023-03-02T11:03:28.137Z,5.80
2023-03-02T11:05:57.378Z,6.00
2023-03-02T11:08:28.934Z,6.10
2023-03-02T11:11:01.407Z,6.00
2023-03-02T11:13:33.407Z,5.90
2023-03-02T11:16:03.770Z,6.00
2023-03-02T11:18:37.782Z,6.10
2023-03-02T11:21:11.789Z,6.00
2023-03-02T11:23:56.705Z,5.80
2023-03-02T11:26:28.877Z,6.00
2023-03-02T11:29:04.109Z,6.10
2023-03-02T11:31:42.407Z,5.90
2023-03-02T11:34:30.122Z,6.00
2023-03-02T11:37:12.300Z,6.10
2023-03-02T11:40:04.900Z,6.30
2023-03-02T11:42:36.843Z,6.10
2023-03-02T11:45:18.873Z,6.00
2023-03-02T11:48:02.476Z,6.10
2023-03-02T11:50:33.749Z,5.90
2023-03-02T11:53:07.232Z,5.70
2023-03-02T11:55:45.488Z,5.70
2023-03-02T11:58:20.380Z,5.90
2023-03-02T12:00:50.412Z,5.80
2023-03-02T12:03:36.913Z,5.90
2023-03-02T12:06:09.364Z,6.00
2023-03-02T12:08:42.234Z,6.10
2023-03-02T12:11:36.319Z,6.20
2023-03-02T12:14:07.364Z,6.10
2023-03-02T12:16:38.177Z,6.10
2023-03-02T12:19:25.384Z,6.20
2023-03-02T12:22:00.456Z,6.10
2023-03-02T12:24:32.026Z,6.20
2023-03-02T12:27:09.208Z,6.20
2023-03-02T12:29:43.069Z,6.30
2023-03-02T12:32:25.126Z,6.30
2023-03-02T12:34:57.485Z,6.20
2023-03-02T12:37:30.387Z,6.10
2023-03-02T12:40:33.700Z,6.10
2023-03-02T12:43:21.677Z,6.30
2023-03-02T12:46:35.989Z,6.40
2023-03-02T12:49:17.724Z,6.20
2023-03-02T12:51:52.585Z,6.10
2023-03-02T12:54:24.137Z,5.90
2023-03-02T12:57:06.228Z,5.90
2023-03-02T12:59:37.124Z,6.00
2023-03-02T13:02:22.217Z,6.00
2023-03-02T13:04:56.249Z,6.10
2023-03-02T13:07:28.464Z,6.20
2023-03-02T13:09:59.869Z,6.10
2023-03-02T13:12:29.743Z,6.00
2023-03-02T13:15:01.155Z,5.90
2023-03-02T13:17:31.644Z,5.80
2023-03-02T13:20:01.842Z,5.80
2023-03-02T13:22:30.386Z,5.80
2023-03-02T13:25:02.125Z,5.80
2023-03-02T13:27:31.086Z,5.90
2023-03-02T13:30:11.734Z,5.90
2023-03-02T13:32:43.117Z,6.00
2023-03-02T13:35:27.715Z,6.00
2023-03-02T13:38:05.779Z,5.90
2023-03-02T13:40:42.306Z,5.90
2023-03-02T13:43:31.906Z,5.80
2023-03-02T13:46:03.269Z,5.80
2023-03-02T13:48:31.846Z,5.70
2023-03-02T13:51:03.713Z,5.70
2023-03-02T13:53:37.941Z,5.80
2023-03-02T13:56:06.505Z,5.90
2023-03-02T13:58:40.195Z,5.90
2023-03-02T14:01:11.517Z,5.70
2023-03-02T14:03:39.750Z,5.70
2023-03-02T14:06:09.444Z,5.70
2023-03-02T14:08:37.537Z,5.70
2023-03-02T14:11:07.560Z,5.70
2023-03-02T14:13:42.777Z,5.70
2023-03-02T14:16:15.363Z,5.60
2023-03-02T14:18:46.663Z,5.60
2023-03-02T14:21:17.394Z,5.50
2023-03-02T14:23:46.034Z,5.50
2023-03-02T14:26:33.076Z,5.60
2023-03-02T14:29:05.984Z,5.60
2023-03-02T14:31:35.975Z,5.60
2023-03-02T14:34:04.161Z,5.50
2023-03-02T14:36:35.402Z,5.50
2023-03-02T14:39:07.230Z,5.50
2023-03-02T14:41:51.159Z,5.50
2023-03-02T14:44:20.749Z,5.50
2023-03-02T14:46:50.697Z,5.60
2023-03-02T14:49:18.952Z,5.70
2023-03-02T14:51:58.949Z,5.70
2023-03-02T14:54:28.177Z,5.50
2023-03-02T14:56:56.149Z,5.40
2023-03-02T14:59:24.023Z,5.50
2023-03-02T15:01:53.755Z,5.50
2023-03-02T15:04:22.392Z,5.50
2023-03-02T15:06:50.776Z,5.50
2023-03-02T15:09:18.652Z,5.60
2023-03-02T15:11:46.626Z,5.60
2023-03-02T15:14:14.497Z,5.60
2023-03-02T15:16:42.876Z,5.50
2023-03-02T15:19:12.278Z,5.40
2023-03-02T15:21:44.692Z,5.40
2023-03-02T15:24:12.849Z,5.30
2023-03-02T15:26:41.029Z,5.20
2023-03-02T15:29:09.405Z,5.20
2023-03-02T15:31:37.257Z,5.20
2023-03-02T15:34:05.171Z,5.20
2023-03-02T15:36:34.722Z,5.20
2023-03-02T15:39:02.703Z,5.20
2023-03-02T15:41:30.840Z,5.20
2023-03-02T15:44:01.682Z,5.10
2023-03-02T15:46:30.038Z,5.00
2023-03-02T15:48:57.919Z,5.00
2023-03-02T15:51:25.831Z,5.10
2023-03-02T15:53:55.026Z,5.00
2023-03-02T15:56:23.826Z,5.00
2023-03-02T15:58:54.358Z,5.00
2023-03-02T16:01:22.233Z,4.90
2023-03-02T16:03:50.263Z,4.80
2023-03-02T16:06:18.125Z,4.70
2023-03-02T16:08:46.110Z,4.80
2023-03-02T16:11:18.648Z,4.90
2023-03-02T16:13:47.049Z,4.80
2023-03-02T16:16:14.970Z,4.70
2023-03-02T16:18:42.864Z,4.60
2023-03-02T16:21:14.273Z,4.40
2023-03-02T16:23:42.160Z,4.30
2023-03-02T16:26:12.892Z,4.20
2023-03-02T16:28:42.446Z,4.20
2023-03-02T16:31:13.114Z,4.10
2023-03-02T16:33:42.761Z,4.10
2023-03-02T16:36:11.785Z,4.00
2023-03-02T16:38:40.992Z,3.90
2023-03-02T16:41:16.259Z,3.80
2023-03-02T16:43:51.356Z,3.80
2023-03-02T16:46:20.538Z,3.70
2023-03-02T16:48:50.068Z,3.80
2023-03-02T16:51:21.713Z,3.80
2023-03-02T16:53:49.827Z,3.80
2023-03-02T16:56:17.966Z,3.80
2023-03-02T16:58:45.915Z,3.80
2023-03-02T17:01:19.582Z,3.80
2023-03-02T17:03:49.243Z,3.80
2023-03-02T17:06:20.423Z,3.70
2023-03-02T17:08:48.271Z,3.80
2023-03-02T17:11:16.204Z,3.70
2023-03-02T17:13:44.126Z,3.70
2023-03-02T17:16:12.607Z,3.50
2023-03-02T17:18:41.903Z,3.50
2023-03-02T17:21:09.768Z,3.40
2023-03-02T17:23:37.953Z,3.40
2023-03-02T17:26:06.649Z,3.30
2023-03-02T17:28:34.861Z,3.10
2023-03-02T17:31:04.428Z,3.10
2023-03-02T17:33:33.897Z,3.10
2023-03-02T17:36:07.399Z,3.00
2023-03-02T17:38:38.526Z,3.00
2023-03-02T17:41:08.807Z,2.90
2023-03-02T17:43:39.226Z,2.90
2023-03-02T17:46:20.165Z,2.80
2023-03-02T17:48:53.932Z,2.70
2023-03-02T17:51:24.603Z,2.70
2023-03-02T17:53:55.158Z,2.90
2023-03-02T17:56:26.440Z,3.00
2023-03-02T17:58:58.559Z,3.10
2023-03-02T18:01:27.072Z,3.20
2023-03-02T18:03:55.264Z,3.30
2023-03-02T18:06:25.058Z,3.40
2023-03-02T18:08:53.579Z,3.40
2023-03-02T18:11:25.517Z,3.50
2023-03-02T18:13:55.676Z,3.40
2023-03-02T18:16:26.032Z,3.40
2023-03-02T18:18:54.273Z,3.30
2023-03-02T18:21:23.736Z,3.30
2023-03-02T18:23:51.965Z,3.30
2023-03-02T18:26:19.972Z,3.20
2023-03-02T18:28:47.859Z,3.10
2023-03-02T18:31:18.485Z,3.00
2023-03-02T18:33:47.415Z,3.00
2023-03-02T18:36:16.112Z,2.90
2023-03-02T18:38:45.608Z,2.80
2023-03-02T18:41:15.018Z,2.80
2023-03-02T18:43:43.855Z,2.90
2023-03-02T18:46:21.796Z,2.80
2023-03-02T18:48:50.928Z,2.80
2023-03-02T18:51:19.913Z,2.80
2023-03-02T18:53:50.953Z,2.60
2023-03-02T18:56:20.296Z,2.50
2023-03-02T18:58:49.487Z,2.60
2023-03-02T19:01:17.499Z,2.60
2023-03-02T19:03:46.204Z,2.70
2023-03-02T19:06:15.848Z,2.70
2023-03-02T19:08:44.022Z,2.80
2023-03-02T19:11:13.894Z,2.70
2023-03-02T19:13:42.222Z,2.70
2023-03-02T19:16:10.381Z,2.70
2023-03-02T19:18:38.734Z,2.70
2023-03-02T19:21:07.253Z,2.70
2023-03-02T19:23:35.445Z,2.70
2023-03-02T19:26:04.778Z,2.70
2023-03-02T19:28:35.081Z,2.60
2023-03-02T19:31:06.472Z,2.60
2023-03-02T19:33:35.100Z,2.60
2023-03-02T19:36:03.007Z,2.60
2023-03-02T19:38:31.126Z,2.60
2023-03-02T19:41:01.869Z,2.50
2023-03-02T19:43:29.864Z,2.40
2023-03-02T19:45:59.456Z,2.40
2023-03-02T19:48:29.685Z,2.40
2023-03-02T19:50:57.804Z,2.40
2023-03-02T19:53:25.994Z,2.40
2023-03-02T19:55:53.885Z,2.40
2023-03-02T19:58:23.479Z,2.50
2023-03-02T20:00:51.401Z,2.50
2023-03-02T20:03:20.669Z,2.50
2023-03-02T20:05:48.844Z,2.20
2023-03-02T20:08:17.150Z,2.10
2023-03-02T20:10:49.293Z,2.20
2023-03-02T20:13:17.986Z,2.30
2023-03-02T20:15:48.183Z,2.30
2023-03-02T20:18:22.225Z,2.30
2023-03-02T20:20:50.445Z,2.30
2023-03-02T20:23:18.795Z,2.30
2023-03-02T20:25:48.487Z,2.40
2023-03-02T20:28:20.657Z,2.40
2023-03-02T20:30:52.412Z,2.40
2023-03-02T20:33:25.968Z,2.40
2023-03-02T20:35:54.803Z,2.40
2023-03-02T20:38:30.796Z,2.40
2023-03-02T20:40:58.747Z,2.40
2023-03-02T20:43:29.633Z,2.50
2023-03-02T20:45:59.575Z,2.40
2023-03-02T20:48:29.748Z,2.40
2023-03-02T20:50:58.285Z,2.40
2023-03-02T20:53:26.500Z,2.30
2023-03-02T20:55:54.767Z,2.30
2023-03-02T20:58:22.625Z,2.40
2023-03-02T21:00:50.562Z,2.30
2023-03-02T21:03:18.453Z,2.30
2023-03-02T21:05:47.685Z,2.20
2023-03-02T21:08:18.514Z,2.20
2023-03-02T21:10:46.529Z,2.20
2023-03-02T21:13:15.128Z,2.20
2023-03-02T21:15:43.376Z,2.20
2023-03-02T21:18:11.367Z,2.10
2023-03-02T21:20:39.993Z,1.90
2023-03-02T21:23:10.945Z,1.90
2023-03-02T21:25:41.873Z,1.80
2023-03-02T21:28:10.529Z,1.80
2023-03-02T21:30:41.645Z,1.60
2023-03-02T21:33:09.598Z,1.50
2023-03-02T21:35:37.518Z,1.60
2023-03-02T21:38:05.923Z,1.60
2023-03-02T21:40:38.469Z,1.60
2023-03-02T21:43:08.340Z,1.60
2023-03-02T21:45:37.335Z,1.50
2023-03-02T21:48:06.247Z,1.60
2023-03-02T21:50:38.412Z,1.40
2023-03-02T21:53:06.892Z,1.50
2023-03-02T21:55:37.007Z,1.60
2023-03-02T21:58:06.077Z,1.70
2023-03-02T22:00:38.494Z,1.80
2023-03-02T22:03:07.499Z,1.80
2023-03-02T22:05:36.423Z,1.80
2023-03-02T22:08:04.739Z,1.90
2023-03-02T22:10:42.074Z,1.90
2023-03-02T22:13:22.725Z,1.90
2023-03-02T22:15:56.830Z,1.90
2023-03-02T22:18:26.341Z,1.80
2023-03-02T22:20:54.305Z,1.70
2023-03-02T22:23:26.129Z,1.70
2023-03-02T22:26:06.299Z,1.70
2023-03-02T22:28:40.604Z,1.70
2023-03-02T22:31:18.610Z,1.70
2023-03-02T22:33:46.535Z,1.70
2023-03-02T22:36:20.758Z,1.70
2023-03-02T22:38:49.627Z,1.70
2023-03-02T22:41:20.827Z,1.70
2023-03-02T22:43:49.454Z,1.70
2023-03-02T22:46:21.644Z,2.70
2023-03-02T22:48:54.292Z,1.50
2023-03-02T22:51:25.741Z,1.50
2023-03-02T22:53:56.477Z,1.50
2023-03-02T22:56:32.960Z,1.50
2023-03-02T22:59:10.567Z,1.30
2023-03-02T23:01:42.788Z,1.10
2023-03-02T23:04:19.559Z,1.00
2023-03-02T23:06:51.694Z,1.00
2023-03-02T23:09:23.565Z,1.20
2023-03-02T23:11:54.891Z,1.10
2023-03-02T23:14:26.962Z,1.10
2023-03-02T23:17:00.250Z,1.20
2023-03-02T23:19:31.257Z,1.20
2023-03-02T23:22:00.337Z,1.30
2023-03-02T23:24:28.240Z,1.10
2023-03-02T23:26:57.812Z,1.10
2023-03-02T23:29:25.752Z,1.10
2023-03-02T23:31:53.807Z,1.10
2023-03-02T23:34:22.077Z,1.10
2023-03-02T23:36:50.317Z,1.10
2023-03-02T23:39:18.465Z,1.10
2023-03-02T23:41:46.687Z,1.10
2023-03-02T23:44:16.038Z,1.10
2023-03-02T23:46:44.684Z,1.10
2023-03-02T23:49:12.646Z,1.10
2023-03-02T23:51:40.843Z,1.20
2023-03-02T23:54:08.779Z,1.10
2023-03-02T23:56:37.019Z,1.10
2023-03-02T23:59:06.058Z,1.10
